sensor_id;sensor_type;location;lat;lon;timestamp;pressure;altitude;pressure_sealevel;temperature;humidity
57000;BME280;42891;50.006;21.964;2023-01-15T00:01:37;98875.69;;;3.56;81.94
57000;BME280;42891;50.006;21.964;2023-01-15T00:05:38;98879.03;;;3.58;82.35
57000;BME280;42891;50.006;21.964;2023-01-15T00:09:38;98850.25;;;3.31;83.11
57000;BME280;42891;50.006;21.964;2023-01-15T00:13:38;98847.63;;;3.45;82.85
57000;BME280;42891;50.006;21.964;2023-01-15T00:17:39;98847.00;;;3.41;82.65
57000;BME280;42891;50.006;21.964;2023-01-15T00:21:39;98833.47;;;3.49;82.73
57000;BME280;42891;50.006;21.964;2023-01-15T00:25:40;98827.94;;;3.54;82.44
57000;BME280;42891;50.006;21.964;2023-01-15T00:30:04;98832.34;;;3.53;82.13
57000;BME280;42891;50.006;21.964;2023-01-15T00:34:05;98826.38;;;3.51;82.19
57000;BME280;42891;50.006;21.964;2023-01-15T00:38:05;98818.44;;;3.38;82.35
57000;BME280;42891;50.006;21.964;2023-01-15T00:42:05;98820.09;;;3.54;82.05
57000;BME280;42891;50.006;21.964;2023-01-15T00:46:06;98792.56;;;3.35;81.94
57000;BME280;42891;50.006;21.964;2023-01-15T00:50:12;98804.38;;;3.55;81.93
57000;BME280;42891;50.006;21.964;2023-01-15T00:54:13;98799.91;;;3.43;82.12
57000;BME280;42891;50.006;21.964;2023-01-15T00:58:13;98778.09;;;3.44;81.39
57000;BME280;42891;50.006;21.964;2023-01-15T01:02:13;98788.97;;;3.51;81.58
57000;BME280;42891;50.006;21.964;2023-01-15T01:06:15;98783.28;;;3.58;81.63
57000;BME280;42891;50.006;21.964;2023-01-15T01:10:16;98772.00;;;3.58;81.81
57000;BME280;42891;50.006;21.964;2023-01-15T01:14:16;98762.59;;;3.55;81.64
57000;BME280;42891;50.006;21.964;2023-01-15T01:18:16;98757.56;;;3.52;81.35
57000;BME280;42891;50.006;21.964;2023-01-15T01:22:16;98750.28;;;3.57;81.31
57000;BME280;42891;50.006;21.964;2023-01-15T01:26:17;98727.47;;;3.47;81.21
57000;BME280;42891;50.006;21.964;2023-01-15T01:30:17;98752.69;;;3.61;80.93
57000;BME280;42891;50.006;21.964;2023-01-15T01:34:17;98752.31;;;3.67;81.00
57000;BME280;42891;50.006;21.964;2023-01-15T01:38:18;98750.03;;;3.75;80.84
57000;BME280;42891;50.006;21.964;2023-01-15T01:42:18;98726.91;;;3.69;80.46
57000;BME280;42891;50.006;21.964;2023-01-15T01:46:18;98742.44;;;3.85;80.55
57000;BME280;42891;50.006;21.964;2023-01-15T01:50:20;98737.94;;;3.87;79.63
57000;BME280;42891;50.006;21.964;2023-01-15T01:54:21;98756.09;;;3.75;79.49
57000;BME280;42891;50.006;21.964;2023-01-15T01:58:26;98751.31;;;3.82;79.44
57000;BME280;42891;50.006;21.964;2023-01-15T02:02:27;98727.38;;;3.75;78.81
57000;BME280;42891;50.006;21.964;2023-01-15T02:06:28;98726.69;;;3.86;78.58
57000;BME280;42891;50.006;21.964;2023-01-15T02:10:29;98723.75;;;3.91;78.44
57000;BME280;42891;50.006;21.964;2023-01-15T02:14:35;98716.94;;;3.88;78.65
57000;BME280;42891;50.006;21.964;2023-01-15T02:28:24;98707.97;;;3.92;78.61
57000;BME280;42891;50.006;21.964;2023-01-15T02:32:34;98695.94;;;3.90;78.65
57000;BME280;42891;50.006;21.964;2023-01-15T02:36:42;98687.84;;;3.95;79.29
57000;BME280;42891;50.006;21.964;2023-01-15T02:40:44;98679.25;;;3.92;78.51
57000;BME280;42891;50.006;21.964;2023-01-15T02:44:48;98670.69;;;3.90;78.76
57000;BME280;42891;50.006;21.964;2023-01-15T02:48:52;98676.97;;;4.01;78.94
57000;BME280;42891;50.006;21.964;2023-01-15T02:52:58;98688.16;;;4.03;78.45
57000;BME280;42891;50.006;21.964;2023-01-15T02:57:03;98689.75;;;4.05;78.09
57000;BME280;42891;50.006;21.964;2023-01-15T03:01:10;98683.13;;;4.00;78.24
57000;BME280;42891;50.006;21.964;2023-01-15T03:05:17;98671.50;;;3.91;78.53
57000;BME280;42891;50.006;21.964;2023-01-15T03:09:19;98643.91;;;3.87;78.28
57000;BME280;42891;50.006;21.964;2023-01-15T03:13:28;98648.13;;;4.02;78.22
57000;BME280;42891;50.006;21.964;2023-01-15T03:25:55;98617.81;;;4.00;77.83
57000;BME280;42891;50.006;21.964;2023-01-15T03:30:17;98596.81;;;3.88;78.03
57000;BME280;42891;50.006;21.964;2023-01-15T03:34:19;98616.38;;;3.96;77.35
57000;BME280;42891;50.006;21.964;2023-01-15T03:38:22;98607.34;;;4.00;77.29
57000;BME280;42891;50.006;21.964;2023-01-15T03:42:35;98587.72;;;3.81;77.27
57000;BME280;42891;50.006;21.964;2023-01-15T03:59:17;98602.56;;;3.93;76.90
57000;BME280;42891;50.006;21.964;2023-01-15T04:03:22;98602.22;;;3.98;75.78
57000;BME280;42891;50.006;21.964;2023-01-15T04:07:23;98599.53;;;4.00;76.00
57000;BME280;42891;50.006;21.964;2023-01-15T04:11:25;98612.69;;;3.98;75.65
57000;BME280;42891;50.006;21.964;2023-01-15T04:15:26;98591.16;;;4.07;76.09
57000;BME280;42891;50.006;21.964;2023-01-15T04:19:26;98577.69;;;4.01;75.42
57000;BME280;42891;50.006;21.964;2023-01-15T04:23:26;98582.91;;;4.14;76.09
57000;BME280;42891;50.006;21.964;2023-01-15T04:27:27;98591.91;;;4.09;75.41
57000;BME280;42891;50.006;21.964;2023-01-15T04:31:27;98578.09;;;4.07;75.71
57000;BME280;42891;50.006;21.964;2023-01-15T04:35:27;98586.59;;;4.11;75.47
57000;BME280;42891;50.006;21.964;2023-01-15T04:39:27;98592.94;;;4.20;74.89
57000;BME280;42891;50.006;21.964;2023-01-15T04:43:28;98596.50;;;4.19;75.03
57000;BME280;42891;50.006;21.964;2023-01-15T04:47:47;98590.84;;;4.12;75.20
57000;BME280;42891;50.006;21.964;2023-01-15T04:51:47;98581.03;;;4.16;75.45
57000;BME280;42891;50.006;21.964;2023-01-15T04:55:48;98576.25;;;4.09;75.39
57000;BME280;42891;50.006;21.964;2023-01-15T04:59:48;98578.63;;;4.25;75.21
57000;BME280;42891;50.006;21.964;2023-01-15T05:03:48;98553.41;;;4.24;75.35
57000;BME280;42891;50.006;21.964;2023-01-15T05:07:48;98557.94;;;4.22;75.22
57000;BME280;42891;50.006;21.964;2023-01-15T05:11:49;98557.59;;;4.27;75.19
57000;BME280;42891;50.006;21.964;2023-01-15T05:15:49;98557.00;;;4.23;75.45
57000;BME280;42891;50.006;21.964;2023-01-15T05:19:49;98564.50;;;4.28;75.17
57000;BME280;42891;50.006;21.964;2023-01-15T05:23:51;98589.19;;;4.24;75.37
57000;BME280;42891;50.006;21.964;2023-01-15T05:27:52;98570.13;;;4.22;75.08
57000;BME280;42891;50.006;21.964;2023-01-15T05:31:52;98587.09;;;4.29;74.98
57000;BME280;42891;50.006;21.964;2023-01-15T05:35:52;98578.09;;;4.33;75.18
57000;BME280;42891;50.006;21.964;2023-01-15T05:39:53;98561.16;;;4.26;75.18
57000;BME280;42891;50.006;21.964;2023-01-15T05:43:54;98554.13;;;4.39;74.56
57000;BME280;42891;50.006;21.964;2023-01-15T05:47:54;98568.66;;;4.43;74.64
57000;BME280;42891;50.006;21.964;2023-01-15T05:51:55;98553.91;;;4.42;74.94
57000;BME280;42891;50.006;21.964;2023-01-15T05:55:55;98521.75;;;4.29;74.52
57000;BME280;42891;50.006;21.964;2023-01-15T05:59:55;98545.84;;;4.46;74.76
57000;BME280;42891;50.006;21.964;2023-01-15T06:04:00;98543.03;;;4.49;74.67
57000;BME280;42891;50.006;21.964;2023-01-15T06:08:00;98546.81;;;4.44;74.50
57000;BME280;42891;50.006;21.964;2023-01-15T06:12:00;98497.59;;;4.25;74.71
57000;BME280;42891;50.006;21.964;2023-01-15T06:16:01;98516.31;;;4.32;74.88
57000;BME280;42891;50.006;21.964;2023-01-15T06:20:02;98509.06;;;4.36;74.54
57000;BME280;42891;50.006;21.964;2023-01-15T06:24:02;98519.31;;;4.39;74.94
57000;BME280;42891;50.006;21.964;2023-01-15T06:28:03;98510.44;;;4.41;74.95
57000;BME280;42891;50.006;21.964;2023-01-15T06:32:04;98513.06;;;4.29;75.38
57000;BME280;42891;50.006;21.964;2023-01-15T06:36:16;98504.91;;;4.33;75.78
57000;BME280;42891;50.006;21.964;2023-01-15T06:40:18;98490.69;;;4.37;75.97
57000;BME280;42891;50.006;21.964;2023-01-15T06:44:18;98482.09;;;4.35;75.78
57000;BME280;42891;50.006;21.964;2023-01-15T06:48:37;98491.28;;;4.41;76.12
57000;BME280;42891;50.006;21.964;2023-01-15T06:52:37;98466.19;;;4.38;76.11
57000;BME280;42891;50.006;21.964;2023-01-15T06:56:37;98483.63;;;4.51;76.33
57000;BME280;42891;50.006;21.964;2023-01-15T07:00:38;98473.78;;;4.54;76.03
57000;BME280;42891;50.006;21.964;2023-01-15T07:04:41;98472.22;;;4.52;76.18
57000;BME280;42891;50.006;21.964;2023-01-15T07:08:42;98468.78;;;4.51;76.14
57000;BME280;42891;50.006;21.964;2023-01-15T07:12:42;98432.09;;;4.40;76.41
57000;BME280;42891;50.006;21.964;2023-01-15T07:16:43;98462.75;;;4.62;76.29
57000;BME280;42891;50.006;21.964;2023-01-15T07:20:43;98453.41;;;4.71;76.67
57000;BME280;42891;50.006;21.964;2023-01-15T07:24:43;98452.09;;;4.65;76.82
57000;BME280;42891;50.006;21.964;2023-01-15T07:28:43;98447.44;;;4.69;76.17
57000;BME280;42891;50.006;21.964;2023-01-15T07:32:44;98453.31;;;4.72;76.18
57000;BME280;42891;50.006;21.964;2023-01-15T07:36:44;98438.41;;;4.61;76.01
57000;BME280;42891;50.006;21.964;2023-01-15T07:40:45;98444.06;;;4.80;76.25
57000;BME280;42891;50.006;21.964;2023-01-15T07:45:05;98440.72;;;4.77;76.11
57000;BME280;42891;50.006;21.964;2023-01-15T07:49:24;98416.69;;;4.72;75.83
57000;BME280;42891;50.006;21.964;2023-01-15T07:53:43;98424.41;;;4.74;76.33
57000;BME280;42891;50.006;21.964;2023-01-15T07:57:43;98432.97;;;4.76;75.99
57000;BME280;42891;50.006;21.964;2023-01-15T08:01:44;98428.47;;;4.78;75.86
57000;BME280;42891;50.006;21.964;2023-01-15T08:05:44;98434.31;;;4.82;75.74
57000;BME280;42891;50.006;21.964;2023-01-15T08:09:44;98418.41;;;4.85;75.45
57000;BME280;42891;50.006;21.964;2023-01-15T08:13:45;98432.53;;;4.82;75.45
57000;BME280;42891;50.006;21.964;2023-01-15T08:18:04;98433.88;;;4.88;75.38
57000;BME280;42891;50.006;21.964;2023-01-15T08:22:06;98413.38;;;4.82;75.13
57000;BME280;42891;50.006;21.964;2023-01-15T08:26:06;98434.91;;;4.85;75.38
57000;BME280;42891;50.006;21.964;2023-01-15T08:30:10;98417.00;;;4.92;75.32
57000;BME280;42891;50.006;21.964;2023-01-15T08:34:10;98417.34;;;4.87;75.33
57000;BME280;42891;50.006;21.964;2023-01-15T08:38:10;98421.84;;;4.85;75.09
57000;BME280;42891;50.006;21.964;2023-01-15T08:42:11;98415.91;;;4.83;75.32
57000;BME280;42891;50.006;21.964;2023-01-15T08:46:11;98412.81;;;4.89;75.23
57000;BME280;42891;50.006;21.964;2023-01-15T08:50:11;98397.47;;;4.85;75.35
57000;BME280;42891;50.006;21.964;2023-01-15T08:54:12;98399.03;;;4.87;74.91
57000;BME280;42891;50.006;21.964;2023-01-15T08:58:13;98404.84;;;4.91;74.58
57000;BME280;42891;50.006;21.964;2023-01-15T09:02:14;98394.03;;;4.95;74.57
57000;BME280;42891;50.006;21.964;2023-01-15T09:06:14;98382.47;;;4.87;74.56
57000;BME280;42891;50.006;21.964;2023-01-15T09:10:14;98384.03;;;4.89;74.74
57000;BME280;42891;50.006;21.964;2023-01-15T09:14:16;98369.66;;;4.95;74.11
57000;BME280;42891;50.006;21.964;2023-01-15T09:18:16;98383.72;;;5.05;74.50
57000;BME280;42891;50.006;21.964;2023-01-15T09:22:18;98368.97;;;5.04;74.55
57000;BME280;42891;50.006;21.964;2023-01-15T09:26:36;98374.44;;;5.01;73.96
57000;BME280;42891;50.006;21.964;2023-01-15T09:30:37;98365.41;;;5.05;74.12
57000;BME280;42891;50.006;21.964;2023-01-15T09:34:37;98342.44;;;4.98;74.11
57000;BME280;42891;50.006;21.964;2023-01-15T09:38:37;98349.59;;;5.07;74.13
57000;BME280;42891;50.006;21.964;2023-01-15T09:42:53;98343.38;;;4.97;73.83
57000;BME280;42891;50.006;21.964;2023-01-15T09:51:45;98329.97;;;5.12;72.66
57000;BME280;42891;50.006;21.964;2023-01-15T09:55:51;98334.28;;;5.25;72.53
57000;BME280;42891;50.006;21.964;2023-01-15T09:59:55;98313.91;;;5.17;71.94
57000;BME280;42891;50.006;21.964;2023-01-15T10:04:31;98309.72;;;5.26;72.21
57000;BME280;42891;50.006;21.964;2023-01-15T10:08:36;98289.66;;;5.26;71.74
57000;BME280;42891;50.006;21.964;2023-01-15T10:12:37;98265.25;;;5.15;71.52
57000;BME280;42891;50.006;21.964;2023-01-15T10:16:43;98279.75;;;5.30;71.66
57000;BME280;42891;50.006;21.964;2023-01-15T10:24:57;98255.84;;;5.35;71.21
57000;BME280;42891;50.006;21.964;2023-01-15T10:29:00;98251.56;;;5.22;70.78
57000;BME280;42891;50.006;21.964;2023-01-15T10:33:11;98247.41;;;5.31;70.81
57000;BME280;42891;50.006;21.964;2023-01-15T10:46:06;98233.84;;;5.37;70.04
57000;BME280;42891;50.006;21.964;2023-01-15T10:50:16;98227.63;;;5.38;70.23
57000;BME280;42891;50.006;21.964;2023-01-15T10:54:28;98218.81;;;5.39;69.86
57000;BME280;42891;50.006;21.964;2023-01-15T11:02:44;98223.84;;;5.31;70.90
57000;BME280;42891;50.006;21.964;2023-01-15T11:06:46;98210.16;;;5.39;70.42
57000;BME280;42891;50.006;21.964;2023-01-15T11:10:46;98205.63;;;5.29;70.43
57000;BME280;42891;50.006;21.964;2023-01-15T11:14:46;98194.56;;;5.26;70.61
57000;BME280;42891;50.006;21.964;2023-01-15T11:19:27;98225.25;;;5.35;70.29
57000;BME280;42891;50.006;21.964;2023-01-15T11:23:37;98196.34;;;5.37;70.73
57000;BME280;42891;50.006;21.964;2023-01-15T11:27:38;98212.66;;;5.29;70.82
57000;BME280;42891;50.006;21.964;2023-01-15T11:31:39;98201.56;;;5.37;70.35
57000;BME280;42891;50.006;21.964;2023-01-15T11:35:49;98231.56;;;5.33;70.13
57000;BME280;42891;50.006;21.964;2023-01-15T11:39:57;98215.25;;;5.40;70.77
57000;BME280;42891;50.006;21.964;2023-01-15T11:43:59;98213.22;;;5.44;70.14
57000;BME280;42891;50.006;21.964;2023-01-15T11:48:22;98232.28;;;5.35;70.70
57000;BME280;42891;50.006;21.964;2023-01-15T11:52:51;98202.91;;;5.31;71.17
57000;BME280;42891;50.006;21.964;2023-01-15T11:56:53;98181.84;;;5.21;71.69
57000;BME280;42891;50.006;21.964;2023-01-15T12:00:54;98179.50;;;5.18;71.34
57000;BME280;42891;50.006;21.964;2023-01-15T12:04:59;98170.81;;;5.06;71.81
57000;BME280;42891;50.006;21.964;2023-01-15T12:09:53;98165.13;;;5.01;71.82
57000;BME280;42891;50.006;21.964;2023-01-15T12:14:50;98179.84;;;5.13;72.62
57000;BME280;42891;50.006;21.964;2023-01-15T12:22:59;98166.16;;;5.21;72.58
57000;BME280;42891;50.006;21.964;2023-01-15T12:32:09;98187.03;;;4.89;73.82
57000;BME280;42891;50.006;21.964;2023-01-15T12:49:05;98184.50;;;4.76;74.63
57000;BME280;42891;50.006;21.964;2023-01-15T12:53:36;98203.19;;;4.71;74.52
57000;BME280;42891;50.006;21.964;2023-01-15T12:57:43;98200.31;;;4.86;74.97
57000;BME280;42891;50.006;21.964;2023-01-15T13:06:09;98179.28;;;4.65;75.70
57000;BME280;42891;50.006;21.964;2023-01-15T13:10:20;98197.59;;;4.87;75.37
57000;BME280;42891;50.006;21.964;2023-01-15T13:14:22;98201.50;;;4.82;75.55
57000;BME280;42891;50.006;21.964;2023-01-15T13:18:25;98193.34;;;4.75;75.29
57000;BME280;42891;50.006;21.964;2023-01-15T13:22:31;98184.06;;;4.82;74.93
57000;BME280;42891;50.006;21.964;2023-01-15T13:34:56;98211.97;;;4.59;76.45
57000;BME280;42891;50.006;21.964;2023-01-15T13:38:59;98195.22;;;4.61;76.29
57000;BME280;42891;50.006;21.964;2023-01-15T13:43:01;98232.50;;;4.41;77.13
57000;BME280;42891;50.006;21.964;2023-01-15T13:47:06;98207.91;;;4.43;77.75
57000;BME280;42891;50.006;21.964;2023-01-15T13:51:30;98196.84;;;4.40;77.43
57000;BME280;42891;50.006;21.964;2023-01-15T13:55:38;98230.03;;;4.62;76.83
57000;BME280;42891;50.006;21.964;2023-01-15T13:59:43;98226.22;;;4.66;76.64
57000;BME280;42891;50.006;21.964;2023-01-15T14:04:06;98227.31;;;4.75;76.69
57000;BME280;42891;50.006;21.964;2023-01-15T14:08:15;98216.00;;;4.52;77.01
57000;BME280;42891;50.006;21.964;2023-01-15T14:12:39;98232.75;;;4.60;77.05
57000;BME280;42891;50.006;21.964;2023-01-15T14:29:44;98209.84;;;4.06;79.47
57000;BME280;42891;50.006;21.964;2023-01-15T14:38:16;98194.94;;;4.19;80.13
57000;BME280;42891;50.006;21.964;2023-01-15T14:46:39;98173.84;;;3.98;81.30
57000;BME280;42891;50.006;21.964;2023-01-15T14:50:41;98160.47;;;3.79;83.90
57000;BME280;42891;50.006;21.964;2023-01-15T14:54:43;98136.00;;;3.68;85.93
57000;BME280;42891;50.006;21.964;2023-01-15T14:59:03;98115.69;;;3.61;87.19
57000;BME280;42891;50.006;21.964;2023-01-15T15:03:15;98123.78;;;3.69;87.17
57000;BME280;42891;50.006;21.964;2023-01-15T15:07:19;98116.19;;;3.66;86.15
57000;BME280;42891;50.006;21.964;2023-01-15T15:11:34;98130.06;;;3.66;86.68
57000;BME280;42891;50.006;21.964;2023-01-15T15:16:03;98121.88;;;3.60;87.31
57000;BME280;42891;50.006;21.964;2023-01-15T15:20:41;98119.78;;;3.40;87.49
57000;BME280;42891;50.006;21.964;2023-01-15T15:24:47;98119.16;;;3.61;87.90
57000;BME280;42891;50.006;21.964;2023-01-15T15:29:16;98110.94;;;3.54;88.16
57000;BME280;42891;50.006;21.964;2023-01-15T15:33:25;98125.59;;;3.44;89.53
57000;BME280;42891;50.006;21.964;2023-01-15T15:37:27;98121.69;;;3.50;90.11
57000;BME280;42891;50.006;21.964;2023-01-15T15:41:31;98102.47;;;3.51;91.37
57000;BME280;42891;50.006;21.964;2023-01-15T15:45:55;98108.00;;;3.35;91.96
57000;BME280;42891;50.006;21.964;2023-01-15T15:50:21;98110.72;;;3.33;92.63
57000;BME280;42891;50.006;21.964;2023-01-15T15:54:24;98109.13;;;3.19;93.50
57000;BME280;42891;50.006;21.964;2023-01-15T15:58:32;98100.44;;;3.19;93.94
57000;BME280;42891;50.006;21.964;2023-01-15T16:02:38;98103.19;;;3.17;94.90
57000;BME280;42891;50.006;21.964;2023-01-15T16:06:40;98090.09;;;3.06;94.91
57000;BME280;42891;50.006;21.964;2023-01-15T16:10:40;98087.47;;;3.06;95.39
57000;BME280;42891;50.006;21.964;2023-01-15T16:14:41;98075.25;;;3.06;95.18
57000;BME280;42891;50.006;21.964;2023-01-15T16:18:43;98083.75;;;3.21;95.13
57000;BME280;42891;50.006;21.964;2023-01-15T16:22:50;98078.38;;;3.12;95.45
57000;BME280;42891;50.006;21.964;2023-01-15T16:27:01;98068.94;;;2.98;95.61
57000;BME280;42891;50.006;21.964;2023-01-15T16:31:04;98070.72;;;3.21;95.85
57000;BME280;42891;50.006;21.964;2023-01-15T16:35:25;98084.22;;;3.15;96.23
57000;BME280;42891;50.006;21.964;2023-01-15T16:39:37;98073.78;;;3.15;95.69
57000;BME280;42891;50.006;21.964;2023-01-15T16:43:50;98059.84;;;3.03;96.05
57000;BME280;42891;50.006;21.964;2023-01-15T16:48:23;98072.00;;;3.16;96.61
57000;BME280;42891;50.006;21.964;2023-01-15T16:52:47;98079.06;;;3.14;96.65
57000;BME280;42891;50.006;21.964;2023-01-15T16:56:51;98066.66;;;3.17;97.48
57000;BME280;42891;50.006;21.964;2023-01-15T17:00:52;98068.91;;;3.22;97.15
57000;BME280;42891;50.006;21.964;2023-01-15T17:04:54;98057.66;;;3.21;97.69
57000;BME280;42891;50.006;21.964;2023-01-15T17:08:55;98062.59;;;3.13;96.89
57000;BME280;42891;50.006;21.964;2023-01-15T17:12:57;98062.72;;;3.12;97.67
57000;BME280;42891;50.006;21.964;2023-01-15T17:21:21;98061.00;;;3.23;97.69
57000;BME280;42891;50.006;21.964;2023-01-15T17:25:30;98057.16;;;3.16;97.41
57000;BME280;42891;50.006;21.964;2023-01-15T17:29:32;98061.81;;;3.24;96.98
57000;BME280;42891;50.006;21.964;2023-01-15T17:33:32;98036.09;;;3.19;97.74
57000;BME280;42891;50.006;21.964;2023-01-15T17:37:32;98051.28;;;3.26;97.25
57000;BME280;42891;50.006;21.964;2023-01-15T17:41:33;98043.44;;;3.26;97.63
57000;BME280;42891;50.006;21.964;2023-01-15T17:45:33;98052.97;;;3.38;97.19
57000;BME280;42891;50.006;21.964;2023-01-15T17:49:34;98067.19;;;3.34;97.06
57000;BME280;42891;50.006;21.964;2023-01-15T17:53:34;98058.69;;;3.43;97.38
57000;BME280;42891;50.006;21.964;2023-01-15T17:57:35;98049.06;;;3.32;96.26
57000;BME280;42891;50.006;21.964;2023-01-15T18:01:54;98055.56;;;3.27;96.89
57000;BME280;42891;50.006;21.964;2023-01-15T18:06:14;98075.66;;;3.37;97.51
57000;BME280;42891;50.006;21.964;2023-01-15T18:10:15;98035.28;;;3.30;96.80
57000;BME280;42891;50.006;21.964;2023-01-15T18:14:17;98059.41;;;3.45;97.18
57000;BME280;42891;50.006;21.964;2023-01-15T18:18:18;98063.81;;;3.45;98.23
57000;BME280;42891;50.006;21.964;2023-01-15T18:22:18;98068.16;;;3.44;97.93
57000;BME280;42891;50.006;21.964;2023-01-15T18:26:18;98065.53;;;3.33;98.31
57000;BME280;42891;50.006;21.964;2023-01-15T18:30:18;98057.25;;;3.39;97.94
57000;BME280;42891;50.006;21.964;2023-01-15T18:34:19;98070.78;;;3.44;98.87
57000;BME280;42891;50.006;21.964;2023-01-15T18:38:19;98066.59;;;3.30;98.63
57000;BME280;42891;50.006;21.964;2023-01-15T18:42:19;98098.44;;;3.47;99.19
57000;BME280;42891;50.006;21.964;2023-01-15T18:46:40;98087.28;;;3.45;99.44
57000;BME280;42891;50.006;21.964;2023-01-15T18:50:43;98104.63;;;3.46;100.00
57000;BME280;42891;50.006;21.964;2023-01-15T18:54:43;98115.16;;;3.44;99.43
57000;BME280;42891;50.006;21.964;2023-01-15T18:58:44;98103.06;;;3.19;99.44
57000;BME280;42891;50.006;21.964;2023-01-15T19:02:44;98124.06;;;3.41;100.00
57000;BME280;42891;50.006;21.964;2023-01-15T19:06:45;98121.53;;;3.40;100.00
57000;BME280;42891;50.006;21.964;2023-01-15T19:10:46;98112.25;;;3.36;100.00
57000;BME280;42891;50.006;21.964;2023-01-15T19:14:46;98140.06;;;3.48;100.00
57000;BME280;42891;50.006;21.964;2023-01-15T19:19:16;98141.69;;;3.38;100.00
57000;BME280;42891;50.006;21.964;2023-01-15T19:23:18;98138.63;;;3.44;100.00
57000;BME280;42891;50.006;21.964;2023-01-15T19:27:19;98165.28;;;3.61;100.00
57000;BME280;42891;50.006;21.964;2023-01-15T19:31:19;98180.56;;;3.54;100.00
57000;BME280;42891;50.006;21.964;2023-01-15T19:35:37;98150.25;;;3.40;100.00
57000;BME280;42891;50.006;21.964;2023-01-15T19:39:38;98179.63;;;3.55;100.00
57000;BME280;42891;50.006;21.964;2023-01-15T19:43:38;98195.28;;;3.55;100.00
57000;BME280;42891;50.006;21.964;2023-01-15T19:48:10;98188.56;;;3.39;100.00
57000;BME280;42891;50.006;21.964;2023-01-15T19:52:29;98208.44;;;3.29;100.00
57000;BME280;42891;50.006;21.964;2023-01-15T19:56:36;98205.66;;;3.19;100.00
57000;BME280;42891;50.006;21.964;2023-01-15T20:00:38;98233.97;;;3.37;100.00
57000;BME280;42891;50.006;21.964;2023-01-15T20:04:39;98236.28;;;3.29;100.00
57000;BME280;42891;50.006;21.964;2023-01-15T20:08:39;98237.75;;;3.33;100.00
57000;BME280;42891;50.006;21.964;2023-01-15T20:12:40;98220.69;;;3.16;100.00
57000;BME280;42891;50.006;21.964;2023-01-15T20:16:59;98241.63;;;3.27;99.59
57000;BME280;42891;50.006;21.964;2023-01-15T20:20:59;98237.81;;;3.07;99.90
57000;BME280;42891;50.006;21.964;2023-01-15T20:24:59;98249.91;;;3.21;100.00
57000;BME280;42891;50.006;21.964;2023-01-15T20:29:00;98258.97;;;3.15;100.00
57000;BME280;42891;50.006;21.964;2023-01-15T20:33:00;98253.28;;;2.97;99.89
57000;BME280;42891;50.006;21.964;2023-01-15T20:37:00;98254.63;;;3.03;99.40
57000;BME280;42891;50.006;21.964;2023-01-15T20:41:08;98262.13;;;2.95;99.56
57000;BME280;42891;50.006;21.964;2023-01-15T20:45:27;98261.41;;;3.05;99.01
57000;BME280;42891;50.006;21.964;2023-01-15T20:49:28;98254.44;;;3.30;98.08
57000;BME280;42891;50.006;21.964;2023-01-15T20:53:31;98260.44;;;3.19;98.01
57000;BME280;42891;50.006;21.964;2023-01-15T20:57:37;98267.84;;;3.00;97.79
57000;BME280;42891;50.006;21.964;2023-01-15T21:01:37;98243.56;;;2.99;98.13
57000;BME280;42891;50.006;21.964;2023-01-15T21:05:39;98267.75;;;3.14;97.61
57000;BME280;42891;50.006;21.964;2023-01-15T21:09:39;98260.13;;;3.11;97.86
57000;BME280;42891;50.006;21.964;2023-01-15T21:13:39;98265.34;;;2.98;97.71
57000;BME280;42891;50.006;21.964;2023-01-15T21:17:43;98271.31;;;3.00;97.50
57000;BME280;42891;50.006;21.964;2023-01-15T21:21:44;98276.41;;;3.02;97.23
57000;BME280;42891;50.006;21.964;2023-01-15T21:25:44;98273.19;;;2.85;97.24
57000;BME280;42891;50.006;21.964;2023-01-15T21:29:46;98277.69;;;2.96;97.70
57000;BME280;42891;50.006;21.964;2023-01-15T21:33:47;98264.56;;;2.85;97.03
57000;BME280;42891;50.006;21.964;2023-01-15T21:37:47;98262.63;;;3.00;97.24
57000;BME280;42891;50.006;21.964;2023-01-15T21:41:47;98262.63;;;3.00;96.99
57000;BME280;42891;50.006;21.964;2023-01-15T21:46:06;98268.69;;;3.13;96.70
57000;BME280;42891;50.006;21.964;2023-01-15T21:50:07;98264.00;;;3.05;96.64
57000;BME280;42891;50.006;21.964;2023-01-15T21:54:08;98254.91;;;2.98;96.21
57000;BME280;42891;50.006;21.964;2023-01-15T21:58:08;98267.53;;;3.17;96.08
57000;BME280;42891;50.006;21.964;2023-01-15T22:02:12;98270.34;;;3.14;95.38
57000;BME280;42891;50.006;21.964;2023-01-15T22:06:15;98258.59;;;2.83;97.12
57000;BME280;42891;50.006;21.964;2023-01-15T22:10:15;98265.25;;;3.00;97.34
57000;BME280;42891;50.006;21.964;2023-01-15T22:14:18;98273.31;;;2.71;97.53
57000;BME280;42891;50.006;21.964;2023-01-15T22:18:19;98252.78;;;2.79;97.14
57000;BME280;42891;50.006;21.964;2023-01-15T22:22:23;98270.03;;;3.19;96.93
57000;BME280;42891;50.006;21.964;2023-01-15T22:26:29;98268.63;;;2.89;97.16
57000;BME280;42891;50.006;21.964;2023-01-15T22:30:30;98260.84;;;3.13;96.62
57000;BME280;42891;50.006;21.964;2023-01-15T22:34:30;98267.56;;;3.04;97.12
57000;BME280;42891;50.006;21.964;2023-01-15T22:38:31;98249.09;;;2.95;96.92
57000;BME280;42891;50.006;21.964;2023-01-15T22:42:31;98252.66;;;2.94;96.92
57000;BME280;42891;50.006;21.964;2023-01-15T22:46:32;98250.97;;;2.93;97.46
57000;BME280;42891;50.006;21.964;2023-01-15T22:50:33;98259.44;;;2.96;97.54
57000;BME280;42891;50.006;21.964;2023-01-15T22:54:33;98252.44;;;3.10;97.69
57000;BME280;42891;50.006;21.964;2023-01-15T22:58:33;98236.78;;;2.97;97.30
57000;BME280;42891;50.006;21.964;2023-01-15T23:02:35;98254.28;;;3.07;97.37
57000;BME280;42891;50.006;21.964;2023-01-15T23:06:53;98256.38;;;3.15;97.69
57000;BME280;42891;50.006;21.964;2023-01-15T23:10:53;98252.72;;;3.05;98.00
57000;BME280;42891;50.006;21.964;2023-01-15T23:14:54;98252.09;;;3.14;97.82
57000;BME280;42891;50.006;21.964;2023-01-15T23:18:54;98239.50;;;2.95;98.20
57000;BME280;42891;50.006;21.964;2023-01-15T23:22:54;98235.50;;;3.15;97.49
57000;BME280;42891;50.006;21.964;2023-01-15T23:26:55;98235.28;;;3.18;97.38
57000;BME280;42891;50.006;21.964;2023-01-15T23:30:55;98246.25;;;3.23;96.67